createdAt,value
2023-01-20T06:18:11.208Z,1005.11
2023-01-20T06:28:11.183Z,1005.37
2023-01-20T06:38:11.191Z,1005.49
2023-01-20T06:48:11.160Z,1005.54
2023-01-20T06:58:11.375Z,1005.74
2023-01-20T07:08:11.355Z,1005.95
2023-01-20T07:18:11.220Z,1005.96
2023-01-20T07:28:11.481Z,1006.13
2023-01-20T07:38:11.243Z,1006.37
2023-01-20T07:48:11.194Z,1006.52
2023-01-20T07:58:11.335Z,1006.58
2023-01-20T08:08:11.327Z,1006.70
2023-01-20T08:18:11.256Z,1006.95
2023-01-20T08:28:11.430Z,1007.15
2023-01-20T08:38:11.430Z,1007.34
2023-01-20T08:48:11.677Z,1007.53
2023-01-20T08:58:11.781Z,1007.59
2023-01-20T09:08:11.695Z,1007.78
2023-01-20T09:18:11.771Z,1007.94
2023-01-20T09:28:11.873Z,1008.12
2023-01-20T09:38:11.723Z,1008.20
2023-01-20T09:48:11.727Z,1008.33
2023-01-20T09:58:11.902Z,1008.34
2023-01-20T10:08:11.766Z,1008.45
2023-01-20T10:18:11.761Z,1008.46
2023-01-20T10:28:11.792Z,1008.53
2023-01-20T10:38:11.875Z,1008.60
2023-01-20T10:48:11.685Z,1008.59
2023-01-20T10:58:11.702Z,1008.78
2023-01-20T11:08:11.953Z,1008.78
2023-01-20T11:18:11.887Z,1008.96
2023-01-20T11:28:11.813Z,1009.10
2023-01-20T11:38:11.987Z,1009.15
2023-01-20T11:48:11.870Z,1009.26
2023-01-20T11:58:11.823Z,1009.34
2023-01-20T12:08:11.874Z,1009.29
2023-01-20T12:18:11.746Z,1009.43
2023-01-20T12:28:11.702Z,1009.50
2023-01-20T12:38:11.751Z,1009.53
2023-01-20T12:48:11.705Z,1009.60
2023-01-20T12:58:11.719Z,1009.54
2023-01-20T13:08:12.722Z,1009.67
2023-01-20T13:18:11.703Z,1009.66
2023-01-20T13:28:11.792Z,1009.74
2023-01-20T13:38:11.739Z,1009.87
2023-01-20T13:48:11.777Z,1010.00
2023-01-20T13:58:11.830Z,1010.21
2023-01-20T14:08:11.726Z,1010.22
2023-01-20T14:18:11.911Z,1010.29
2023-01-20T14:28:11.967Z,1010.40
2023-01-20T14:38:11.932Z,1010.71
2023-01-20T14:48:19.131Z,1010.89
2023-01-20T14:58:12.012Z,1010.99
2023-01-20T15:08:12.069Z,1011.16
2023-01-20T15:18:12.052Z,1011.44
2023-01-20T15:28:11.852Z,1011.66
2023-01-20T15:38:11.957Z,1011.81
2023-01-20T15:48:11.872Z,1011.99
2023-01-20T15:58:11.884Z,1012.08
2023-01-20T16:08:11.905Z,1012.30
2023-01-20T16:18:12.103Z,1012.57
2023-01-20T16:28:12.170Z,1012.72
2023-01-20T16:38:12.128Z,1012.82
2023-01-20T16:48:12.061Z,1012.94
2023-01-20T16:58:12.199Z,1013.26
2023-01-20T17:08:12.132Z,1013.37
2023-01-20T17:18:12.059Z,1013.56
2023-01-20T17:28:12.004Z,1013.58
2023-01-20T17:38:12.994Z,1013.73
2023-01-20T17:48:12.058Z,1013.84
2023-01-20T17:58:12.108Z,1014.08
2023-01-20T18:08:12.046Z,1014.26
2023-01-20T18:18:12.032Z,1014.44
2023-01-20T18:28:12.045Z,1014.56
2023-01-20T18:38:12.058Z,1014.61
2023-01-20T18:48:12.051Z,1014.78
2023-01-20T18:58:12.037Z,1014.91
2023-01-20T19:08:12.112Z,1015.06
2023-01-20T19:18:12.094Z,1015.18
